createdAt,value
2022-12-03T00:04:04.938Z,1010.16
2022-12-03T00:09:04.788Z,1010.09
2022-12-03T00:14:04.713Z,1010.01
2022-12-03T00:19:04.720Z,1009.98
2022-12-03T00:24:04.743Z,1009.82
2022-12-03T00:29:04.530Z,1009.88
2022-12-03T00:34:04.449Z,1009.91
2022-12-03T00:39:04.347Z,1009.86
2022-12-03T00:44:04.348Z,1009.91
2022-12-03T00:49:04.220Z,1009.89
2022-12-03T00:54:04.202Z,1009.88
2022-12-03T00:59:04.157Z,1009.96
2022-12-03T01:04:04.032Z,1009.94
2022-12-03T01:09:04.000Z,1009.92
2022-12-03T01:14:03.922Z,1009.86
2022-12-03T01:19:03.847Z,1009.87
2022-12-03T01:24:03.848Z,1009.88
2022-12-03T01:29:03.735Z,1009.80
2022-12-03T01:34:03.656Z,1009.78
2022-12-03T01:39:03.603Z,1009.78
2022-12-03T01:44:03.521Z,1009.77
2022-12-03T01:49:03.470Z,1009.89
2022-12-03T01:54:03.484Z,1009.84
2022-12-03T01:59:03.358Z,1009.75
2022-12-03T02:04:03.393Z,1009.67
2022-12-03T02:09:03.212Z,1009.73
2022-12-03T02:14:03.135Z,1009.67
2022-12-03T02:19:03.151Z,1009.60
2022-12-03T02:24:03.080Z,1009.64
2022-12-03T02:29:03.023Z,1009.76
2022-12-03T02:34:02.902Z,1009.64
2022-12-03T02:39:02.858Z,1009.61
2022-12-03T02:44:02.795Z,1009.55
2022-12-03T02:49:02.701Z,1009.60
2022-12-03T02:54:02.683Z,1009.61
2022-12-03T02:59:02.580Z,1009.57
2022-12-03T03:04:02.502Z,1009.61
2022-12-03T03:09:03.970Z,1009.63
2022-12-03T03:14:02.513Z,1009.64
2022-12-03T03:19:02.408Z,1009.62
2022-12-03T03:24:02.567Z,1009.65
2022-12-03T03:29:02.897Z,1009.66
2022-12-03T03:34:03.638Z,1009.67
2022-12-03T03:39:02.559Z,1009.57
2022-12-03T03:44:02.697Z,1009.51
2022-12-03T03:49:03.445Z,1009.48
2022-12-03T03:54:06.053Z,1009.58
2022-12-03T03:59:03.318Z,1009.59
2022-12-03T04:04:02.020Z,1009.54
2022-12-03T04:09:02.253Z,1009.33
2022-12-03T04:14:03.123Z,1009.45
2022-12-03T04:19:03.054Z,1009.44
2022-12-03T04:24:01.746Z,1009.39
2022-12-03T04:29:02.920Z,1009.39
2022-12-03T04:34:01.419Z,1009.41
2022-12-03T04:39:01.348Z,1009.41
2022-12-03T04:44:01.400Z,1009.34
2022-12-03T04:49:01.226Z,1009.42
2022-12-03T04:54:02.597Z,1009.35
2022-12-03T04:59:01.386Z,1009.41
2022-12-03T05:04:01.035Z,1009.45
2022-12-03T05:09:01.456Z,1009.35
2022-12-03T05:14:02.353Z,1009.34
2022-12-03T05:19:02.274Z,1009.29
2022-12-03T05:24:00.908Z,1009.21
2022-12-03T05:29:01.293Z,1009.14
2022-12-03T05:34:01.224Z,1009.25
2022-12-03T05:39:00.851Z,1009.15
2022-12-03T05:44:00.722Z,1009.11
2022-12-03T05:49:00.983Z,1009.12
2022-12-03T05:54:00.656Z,1009.13
2022-12-03T05:59:01.779Z,1009.06
2022-12-03T06:04:04.457Z,1009.13
2022-12-03T06:09:00.350Z,1009.11
2022-12-03T06:14:00.198Z,1009.18
2022-12-03T06:19:03.906Z,1009.21
2022-12-03T06:24:01.448Z,1009.12
2022-12-03T06:29:01.385Z,1009.20
2022-12-03T06:34:00.184Z,1009.14
2022-12-03T06:39:00.255Z,1009.19
2022-12-03T06:43:59.774Z,1009.24
2022-12-03T06:49:03.590Z,1009.17
2022-12-03T06:54:00.083Z,1009.25
2022-12-03T06:59:01.019Z,1009.25
2022-12-03T07:04:00.962Z,1009.13
2022-12-03T07:09:00.992Z,1009.23
2022-12-03T07:14:04.702Z,1009.21
2022-12-03T07:19:00.330Z,1009.20
2022-12-03T07:23:59.465Z,1009.22
2022-12-03T07:29:03.073Z,1009.16
2022-12-03T07:34:00.608Z,1009.17
2022-12-03T07:38:59.248Z,1009.28
2022-12-03T07:44:00.529Z,1009.24
2022-12-03T07:49:01.845Z,1009.28
2022-12-03T07:53:59.769Z,1009.23
2022-12-03T07:58:59.989Z,1009.28
2022-12-03T08:04:00.354Z,1009.17
2022-12-03T08:08:58.736Z,1009.15
2022-12-03T08:14:01.242Z,1009.22
2022-12-03T08:18:58.834Z,1009.02
2022-12-03T08:23:59.993Z,1009.11
2022-12-03T08:28:58.475Z,1009.00
2022-12-03T08:33:59.142Z,1008.96
2022-12-03T08:39:02.504Z,1008.94
2022-12-03T08:43:58.281Z,1008.93
2022-12-03T08:48:58.865Z,1008.97
2022-12-03T08:54:01.921Z,1009.15
2022-12-03T08:58:59.649Z,1009.09
2022-12-03T09:03:59.693Z,1009.18
2022-12-03T09:09:03.797Z,1009.09
2022-12-03T09:14:00.389Z,1009.22
2022-12-03T09:18:59.356Z,1009.12
2022-12-03T09:23:59.772Z,1009.08
2022-12-03T09:28:59.172Z,1009.12
2022-12-03T09:33:59.514Z,1009.07
2022-12-03T09:38:59.398Z,1009.02
2022-12-03T09:44:05.936Z,1009.01
2022-12-03T09:48:59.827Z,1008.94
2022-12-03T09:54:04.567Z,1009.04
2022-12-03T09:58:58.268Z,1009.04
2022-12-03T10:03:58.845Z,1009.00
2022-12-03T10:08:57.265Z,1008.94
2022-12-03T10:13:59.257Z,1008.92
2022-12-03T10:18:58.516Z,1008.76
2022-12-03T10:23:57.897Z,1008.76
2022-12-03T10:28:58.322Z,1008.59
2022-12-03T10:33:57.857Z,1008.66
2022-12-03T10:38:58.397Z,1008.58
2022-12-03T10:43:58.544Z,1008.56
2022-12-03T10:48:59.930Z,1008.52
2022-12-03T10:53:58.240Z,1008.57
2022-12-03T10:58:57.984Z,1008.55
2022-12-03T11:03:58.063Z,1008.54
2022-12-03T11:08:59.398Z,1008.54
2022-12-03T11:13:57.501Z,1008.40
2022-12-03T11:18:57.635Z,1008.48
2022-12-03T11:23:56.152Z,1008.36
2022-12-03T11:28:56.172Z,1008.35
2022-12-03T11:33:56.133Z,1008.25
2022-12-03T11:38:56.038Z,1008.22
2022-12-03T11:43:56.520Z,1008.24
2022-12-03T11:48:59.646Z,1008.17
2022-12-03T11:53:55.762Z,1008.21
2022-12-03T11:58:56.284Z,1008.11
2022-12-03T12:03:55.939Z,1008.07
2022-12-03T12:08:59.489Z,1008.04
2022-12-03T12:13:59.781Z,1008.07
2022-12-03T12:18:59.550Z,1008.03
2022-12-03T12:23:56.808Z,1008.00
2022-12-03T12:28:56.917Z,1007.92
2022-12-03T12:33:56.747Z,1007.80
2022-12-03T12:38:56.701Z,1007.71
2022-12-03T12:43:56.687Z,1007.65
2022-12-03T12:48:59.662Z,1007.56
2022-12-03T12:53:56.604Z,1007.53
2022-12-03T12:58:55.284Z,1007.42
2022-12-03T13:03:55.727Z,1007.43
2022-12-03T13:08:55.085Z,1007.38
2022-12-03T13:13:55.116Z,1007.44
2022-12-03T13:18:56.118Z,1007.41
2022-12-03T13:23:54.728Z,1007.42
2022-12-03T13:28:54.663Z,1007.42
2022-12-03T13:33:58.795Z,1007.38
2022-12-03T13:38:54.636Z,1007.31
2022-12-03T13:43:54.917Z,1007.39
2022-12-03T13:48:57.426Z,1007.40
2022-12-03T13:53:55.467Z,1007.35
2022-12-03T13:58:54.370Z,1007.38
2022-12-03T14:03:58.442Z,1007.36
2022-12-03T14:08:54.027Z,1007.40
2022-12-03T14:13:57.986Z,1007.23
2022-12-03T14:18:54.294Z,1007.27
2022-12-03T14:23:54.176Z,1007.33
2022-12-03T14:29:00.392Z,1007.35
2022-12-03T14:33:54.223Z,1007.38
2022-12-03T14:38:54.143Z,1007.33
2022-12-03T14:43:53.772Z,1007.32
2022-12-03T14:48:54.217Z,1007.38
2022-12-03T14:53:57.230Z,1007.34
2022-12-03T14:58:53.383Z,1007.37
2022-12-03T15:03:53.331Z,1007.36
2022-12-03T15:09:14.037Z,1007.35
2022-12-03T15:13:57.091Z,1007.38
2022-12-03T15:18:53.277Z,1007.45
2022-12-03T15:23:54.497Z,1007.46
2022-12-03T15:28:54.427Z,1007.28
2022-12-03T15:33:54.449Z,1007.41
2022-12-03T15:38:54.361Z,1007.34
2022-12-03T15:43:54.447Z,1007.30
2022-12-03T15:48:54.271Z,1007.28
2022-12-03T15:53:54.118Z,1007.24
2022-12-03T15:58:54.045Z,1007.34
2022-12-03T16:03:54.077Z,1007.32
2022-12-03T16:08:56.415Z,1007.25
2022-12-03T16:13:52.965Z,1007.31
2022-12-03T16:18:52.910Z,1007.39
2022-12-03T16:23:52.335Z,1007.33
2022-12-03T16:28:52.676Z,1007.25
2022-12-03T16:33:52.556Z,1007.22
2022-12-03T16:38:53.534Z,1007.23
2022-12-03T16:43:56.133Z,1007.16
2022-12-03T16:48:55.909Z,1007.24
2022-12-03T16:53:53.339Z,1007.19
2022-12-03T16:58:53.254Z,1007.15
2022-12-03T17:03:51.885Z,1007.13
2022-12-03T17:08:51.735Z,1007.12
2022-12-03T17:13:52.053Z,1007.18
2022-12-03T17:18:51.993Z,1007.07
2022-12-03T17:23:52.933Z,1007.08
2022-12-03T17:28:51.519Z,1007.00
2022-12-03T17:33:51.597Z,1006.98
2022-12-03T17:38:51.331Z,1006.91
2022-12-03T17:43:52.690Z,1006.91
2022-12-03T17:48:51.593Z,1006.84
2022-12-03T17:53:52.551Z,1006.83
2022-12-03T17:58:51.053Z,1006.78
2022-12-03T18:03:52.518Z,1006.80
2022-12-03T18:08:52.368Z,1006.74
2022-12-03T18:13:51.048Z,1006.77
2022-12-03T18:18:56.373Z,1006.80
2022-12-03T18:23:51.742Z,1006.78
2022-12-03T18:28:50.848Z,1006.85
2022-12-03T18:33:50.588Z,1006.84
2022-12-03T18:38:51.985Z,1006.84
2022-12-03T18:43:50.579Z,1006.77
2022-12-03T18:48:50.427Z,1006.80
2022-12-03T18:53:50.545Z,1006.75
2022-12-03T18:58:50.656Z,1006.62
2022-12-03T19:03:54.206Z,1006.68
2022-12-03T19:08:50.319Z,1006.78
2022-12-03T19:13:54.275Z,1006.78
2022-12-03T19:18:50.539Z,1006.75
2022-12-03T19:24:22.658Z,1006.78
2022-12-03T19:28:51.112Z,1006.73
2022-12-03T19:33:50.235Z,1006.76
2022-12-03T19:38:55.189Z,1006.79
2022-12-03T19:43:51.024Z,1006.81
2022-12-03T19:48:53.726Z,1006.80
2022-12-03T19:53:50.123Z,1006.74
2022-12-03T19:58:50.923Z,1006.87
2022-12-03T20:03:49.595Z,1006.77
2022-12-03T20:08:49.417Z,1006.78
2022-12-03T20:13:51.280Z,1006.81
2022-12-03T20:18:49.287Z,1006.83
2022-12-03T20:23:50.171Z,1006.77
2022-12-03T20:28:50.652Z,1006.76
2022-12-03T20:33:50.675Z,1006.75
2022-12-03T20:38:49.882Z,1006.78
2022-12-03T20:43:49.253Z,1006.65
2022-12-03T20:48:48.882Z,1006.67
2022-12-03T20:53:49.047Z,1006.69
2022-12-03T20:58:48.984Z,1006.58
2022-12-03T21:03:49.204Z,1006.61
2022-12-03T21:08:49.415Z,1006.57
2022-12-03T21:13:49.543Z,1006.61
2022-12-03T21:18:48.785Z,1006.63
2022-12-03T21:23:48.616Z,1006.67
2022-12-03T21:28:49.790Z,1006.50
2022-12-03T21:33:48.409Z,1006.61
2022-12-03T21:38:49.341Z,1006.56
2022-12-03T21:43:48.652Z,1006.49
2022-12-03T21:48:51.969Z,1006.52
2022-12-03T21:53:49.463Z,1006.48
2022-12-03T21:58:48.226Z,1006.41
2022-12-03T22:03:49.349Z,1006.44
2022-12-03T22:08:49.268Z,1006.49
2022-12-03T22:13:48.150Z,1006.54
2022-12-03T22:18:51.620Z,1006.44
2022-12-03T22:23:51.647Z,1006.44
2022-12-03T22:28:47.849Z,1006.50
2022-12-03T22:33:51.482Z,1006.46
2022-12-03T22:38:48.458Z,1006.45
2022-12-03T22:43:47.532Z,1006.41
2022-12-03T22:48:51.300Z,1006.30
2022-12-03T22:53:47.326Z,1006.33
2022-12-03T22:58:47.236Z,1006.32
2022-12-03T23:03:47.465Z,1006.21
2022-12-03T23:08:48.487Z,1006.20
2022-12-03T23:13:48.396Z,1006.07
2022-12-03T23:18:46.901Z,1006.09
2022-12-03T23:23:46.837Z,1006.04
2022-12-03T23:28:46.959Z,1005.90
2022-12-03T23:33:48.312Z,1005.98
2022-12-03T23:38:48.097Z,1005.94
2022-12-03T23:43:47.095Z,1005.85
2022-12-03T23:48:46.584Z,1005.83
2022-12-03T23:53:47.904Z,1005.80
2022-12-03T23:58:46.352Z,1005.77
